This is the latest recevied weather packets stored in our database for station/object VK4SSH. If no packets are shown the sender has not sent any weather packets the latest 10 day(s).
| Time | Temp. | Humidity | Pressure | Rain* | Wind** | Luminosity | Snow |
|---|---|---|---|---|---|---|---|
| 1777853129 | 26.67° C | 71% | - | 0 mm | - | - | - |
| 1777852529 | 25.56° C | 74% | - | 0 mm | - | - | - |
| 1777851929 | 26.11° C | 75% | - | 0 mm | - | - | - |
| 1777851328 | 25.56° C | 75% | - | 0 mm | - | - | - |
| 1777850741 | 24.44° C | 80% | - | 0 mm | - | - | - |
| 1777850129 | 23.33° C | 85% | - | 0 mm | - | - | - |
| 1777849529 | 22.78° C | 86% | - | 0 mm | - | - | - |
| 1777848929 | 21.67° C | 89% | - | 0 mm | - | - | - |
| 1777848329 | 21.11° C | 91% | - | 0 mm | - | - | - |
| 1777847729 | 20.56° C | 93% | - | 0 mm | - | - | - |
| 1777847129 | 20° C | 96% | - | 0 mm | - | - | - |
| 1777846529 | 19.44° C | 96% | - | 0.51 mm | - | - | - |
| 1777845928 | 19.44° C | 95% | - | 1.27 mm | - | - | - |
| 1777845328 | 19.44° C | 95% | - | 1.27 mm | - | - | - |
| 1777844721 | 18.89° C | 96% | - | 1.27 mm | - | - | - |
| 1777844129 | 18.89° C | 96% | - | 1.27 mm | - | - | - |
| 1777843528 | 18.89° C | 95% | - | 1.27 mm | - | - | - |
| 1777842928 | 18.89° C | 93% | - | 0.76 mm | - | - | - |
| 1777842328 | 18.33° C | 93% | - | 0 mm | - | - | - |
| 1777841728 | 18.33° C | 94% | - | 0 mm | - | - | - |
| 1777841128 | 18.33° C | 94% | - | 0 mm | - | - | - |
| 1777840528 | 18.33° C | 94% | - | 0 mm | - | - | - |
| 1777839929 | 18.33° C | 94% | - | 0 mm | - | - | - |
| 1777839328 | 18.33° C | 94% | - | 0 mm | - | - | - |
| 1777838729 | 18.33° C | 94% | - | 0 mm | - | - | - |
* Rain latest hour (hover to see other rain measurements)
** Current wind speed in m/s (hover to see current wind gust speed)